sensor_id;sensor_type;location;lat;lon;timestamp;P1;durP1;ratioP1;P2;durP2;ratioP2
19780;SDS011;10050;55.492;13.506;2022-10-31T00:01:10;22.83;;;15.20;;
19780;SDS011;10050;55.492;13.506;2022-10-31T00:03:37;21.90;;;15.40;;
19780;SDS011;10050;55.492;13.506;2022-10-31T00:06:02;26.27;;;15.80;;
19780;SDS011;10050;55.492;13.506;2022-10-31T00:08:28;23.07;;;14.37;;
19780;SDS011;10050;55.492;13.506;2022-10-31T00:10:54;23.87;;;15.53;;
19780;SDS011;10050;55.492;13.506;2022-10-31T00:13:19;23.00;;;14.53;;
19780;SDS011;10050;55.492;13.506;2022-10-31T00:15:45;25.83;;;15.93;;
19780;SDS011;10050;55.492;13.506;2022-10-31T00:18:11;24.67;;;15.50;;
19780;SDS011;10050;55.492;13.506;2022-10-31T00:20:36;26.57;;;16.80;;
19780;SDS011;10050;55.492;13.506;2022-10-31T00:23:02;28.33;;;16.87;;
19780;SDS011;10050;55.492;13.506;2022-10-31T00:25:32;26.43;;;16.10;;
19780;SDS011;10050;55.492;13.506;2022-10-31T00:28:00;24.33;;;15.70;;
19780;SDS011;10050;55.492;13.506;2022-10-31T00:30:26;23.20;;;14.40;;
19780;SDS011;10050;55.492;13.506;2022-10-31T00:32:52;27.33;;;16.20;;
19780;SDS011;10050;55.492;13.506;2022-10-31T00:35:17;21.67;;;14.93;;
19780;SDS011;10050;55.492;13.506;2022-10-31T00:37:43;25.83;;;17.03;;
19780;SDS011;10050;55.492;13.506;2022-10-31T00:40:09;24.93;;;16.30;;
19780;SDS011;10050;55.492;13.506;2022-10-31T00:42:35;25.93;;;15.67;;
19780;SDS011;10050;55.492;13.506;2022-10-31T00:45:01;20.23;;;14.17;;
19780;SDS011;10050;55.492;13.506;2022-10-31T00:47:26;23.23;;;15.60;;
19780;SDS011;10050;55.492;13.506;2022-10-31T00:49:52;23.23;;;15.27;;
19780;SDS011;10050;55.492;13.506;2022-10-31T00:52:17;23.77;;;14.97;;
19780;SDS011;10050;55.492;13.506;2022-10-31T00:54:43;26.43;;;16.73;;
19780;SDS011;10050;55.492;13.506;2022-10-31T00:57:09;23.67;;;14.93;;
19780;SDS011;10050;55.492;13.506;2022-10-31T00:59:34;25.53;;;16.53;;
19780;SDS011;10050;55.492;13.506;2022-10-31T01:02:00;26.50;;;15.33;;
19780;SDS011;10050;55.492;13.506;2022-10-31T01:04:26;24.63;;;15.43;;
19780;SDS011;10050;55.492;13.506;2022-10-31T01:06:51;22.83;;;15.60;;
19780;SDS011;10050;55.492;13.506;2022-10-31T01:09:17;24.47;;;15.60;;
19780;SDS011;10050;55.492;13.506;2022-10-31T01:11:43;23.33;;;14.47;;
19780;SDS011;10050;55.492;13.506;2022-10-31T01:14:08;25.10;;;15.23;;
19780;SDS011;10050;55.492;13.506;2022-10-31T01:16:34;23.63;;;14.47;;
19780;SDS011;10050;55.492;13.506;2022-10-31T01:19:00;25.13;;;14.97;;
19780;SDS011;10050;55.492;13.506;2022-10-31T01:21:26;25.00;;;15.03;;
19780;SDS011;10050;55.492;13.506;2022-10-31T01:23:53;24.20;;;14.70;;
19780;SDS011;10050;55.492;13.506;2022-10-31T01:26:26;22.77;;;14.47;;
19780;SDS011;10050;55.492;13.506;2022-10-31T01:28:55;23.73;;;14.40;;
19780;SDS011;10050;55.492;13.506;2022-10-31T01:31:24;23.90;;;15.47;;
19780;SDS011;10050;55.492;13.506;2022-10-31T01:33:52;26.90;;;14.50;;
19780;SDS011;10050;55.492;13.506;2022-10-31T01:38:46;22.67;;;14.80;;
19780;SDS011;10050;55.492;13.506;2022-10-31T01:41:13;24.10;;;13.97;;
19780;SDS011;10050;55.492;13.506;2022-10-31T01:43:41;20.73;;;13.53;;
19780;SDS011;10050;55.492;13.506;2022-10-31T01:49:15;27.30;;;15.20;;
19780;SDS011;10050;55.492;13.506;2022-10-31T01:51:47;25.10;;;14.73;;
19780;SDS011;10050;55.492;13.506;2022-10-31T01:54:17;26.90;;;14.17;;
19780;SDS011;10050;55.492;13.506;2022-10-31T01:56:45;20.00;;;12.97;;
19780;SDS011;10050;55.492;13.506;2022-10-31T01:59:15;21.40;;;13.47;;
19780;SDS011;10050;55.492;13.506;2022-10-31T02:01:44;20.47;;;13.17;;
19780;SDS011;10050;55.492;13.506;2022-10-31T02:04:10;25.40;;;15.27;;
19780;SDS011;10050;55.492;13.506;2022-10-31T02:06:41;25.63;;;14.77;;
19780;SDS011;10050;55.492;13.506;2022-10-31T02:09:12;23.17;;;14.33;;
19780;SDS011;10050;55.492;13.506;2022-10-31T02:11:38;25.83;;;14.97;;
19780;SDS011;10050;55.492;13.506;2022-10-31T02:14:05;22.63;;;14.20;;
19780;SDS011;10050;55.492;13.506;2022-10-31T02:16:31;22.17;;;14.07;;
19780;SDS011;10050;55.492;13.506;2022-10-31T02:18:57;24.90;;;14.87;;
19780;SDS011;10050;55.492;13.506;2022-10-31T02:26:57;24.13;;;14.00;;
19780;SDS011;10050;55.492;13.506;2022-10-31T02:33:30;22.53;;;14.90;;
19780;SDS011;10050;55.492;13.506;2022-10-31T02:42:21;21.30;;;12.27;;
19780;SDS011;10050;55.492;13.506;2022-10-31T02:44:38;20.23;;;12.77;;
19780;SDS011;10050;55.492;13.506;2022-10-31T02:47:14;21.60;;;12.70;;
19780;SDS011;10050;55.492;13.506;2022-10-31T02:52:13;21.90;;;13.27;;
19780;SDS011;10050;55.492;13.506;2022-10-31T02:54:46;21.77;;;13.67;;
19780;SDS011;10050;55.492;13.506;2022-10-31T02:57:13;23.30;;;13.50;;
19780;SDS011;10050;55.492;13.506;2022-10-31T02:59:42;19.27;;;12.53;;
19780;SDS011;10050;55.492;13.506;2022-10-31T03:10:47;19.27;;;12.30;;
19780;SDS011;10050;55.492;13.506;2022-10-31T03:16:15;16.97;;;10.73;;
19780;SDS011;10050;55.492;13.506;2022-10-31T03:21:25;17.60;;;11.53;;
19780;SDS011;10050;55.492;13.506;2022-10-31T03:23:57;18.70;;;11.27;;
19780;SDS011;10050;55.492;13.506;2022-10-31T03:26:24;19.63;;;11.87;;
19780;SDS011;10050;55.492;13.506;2022-10-31T03:29:09;17.73;;;11.13;;
19780;SDS011;10050;55.492;13.506;2022-10-31T03:31:46;17.43;;;11.07;;
19780;SDS011;10050;55.492;13.506;2022-10-31T03:34:48;20.60;;;11.53;;
19780;SDS011;10050;55.492;13.506;2022-10-31T03:37:16;18.27;;;11.00;;
19780;SDS011;10050;55.492;13.506;2022-10-31T03:39:44;18.80;;;11.67;;
19780;SDS011;10050;55.492;13.506;2022-10-31T03:42:13;16.73;;;11.27;;
19780;SDS011;10050;55.492;13.506;2022-10-31T03:44:42;17.43;;;10.83;;
19780;SDS011;10050;55.492;13.506;2022-10-31T03:47:15;17.43;;;10.70;;
19780;SDS011;10050;55.492;13.506;2022-10-31T03:49:41;18.20;;;10.93;;
19780;SDS011;10050;55.492;13.506;2022-10-31T03:55:19;16.93;;;10.47;;
19780;SDS011;10050;55.492;13.506;2022-10-31T03:57:58;15.40;;;10.30;;
19780;SDS011;10050;55.492;13.506;2022-10-31T04:00:27;17.53;;;10.17;;
19780;SDS011;10050;55.492;13.506;2022-10-31T04:03:07;17.27;;;11.13;;
19780;SDS011;10050;55.492;13.506;2022-10-31T04:05:36;17.87;;;11.23;;
19780;SDS011;10050;55.492;13.506;2022-10-31T04:08:04;15.90;;;10.60;;
19780;SDS011;10050;55.492;13.506;2022-10-31T04:10:34;18.03;;;10.80;;
19780;SDS011;10050;55.492;13.506;2022-10-31T04:13:10;17.80;;;11.03;;
19780;SDS011;10050;55.492;13.506;2022-10-31T04:15:39;16.63;;;11.47;;
19780;SDS011;10050;55.492;13.506;2022-10-31T04:18:07;18.73;;;12.27;;
19780;SDS011;10050;55.492;13.506;2022-10-31T04:20:37;17.97;;;11.47;;
19780;SDS011;10050;55.492;13.506;2022-10-31T04:23:05;18.57;;;11.10;;
19780;SDS011;10050;55.492;13.506;2022-10-31T04:25:43;18.40;;;11.20;;
19780;SDS011;10050;55.492;13.506;2022-10-31T04:28:09;19.43;;;11.00;;
19780;SDS011;10050;55.492;13.506;2022-10-31T04:30:34;20.17;;;11.83;;
19780;SDS011;10050;55.492;13.506;2022-10-31T04:33:00;18.43;;;11.33;;
19780;SDS011;10050;55.492;13.506;2022-10-31T04:35:25;19.67;;;12.07;;
19780;SDS011;10050;55.492;13.506;2022-10-31T04:37:51;21.40;;;11.87;;
19780;SDS011;10050;55.492;13.506;2022-10-31T04:40:16;22.27;;;14.07;;
19780;SDS011;10050;55.492;13.506;2022-10-31T04:42:42;17.77;;;11.47;;
19780;SDS011;10050;55.492;13.506;2022-10-31T04:45:08;17.37;;;11.00;;
19780;SDS011;10050;55.492;13.506;2022-10-31T04:47:34;19.53;;;12.33;;
19780;SDS011;10050;55.492;13.506;2022-10-31T04:50:00;17.07;;;10.33;;
19780;SDS011;10050;55.492;13.506;2022-10-31T04:52:26;17.03;;;10.93;;
19780;SDS011;10050;55.492;13.506;2022-10-31T04:54:52;19.73;;;11.80;;
19780;SDS011;10050;55.492;13.506;2022-10-31T04:57:17;18.20;;;10.90;;
19780;SDS011;10050;55.492;13.506;2022-10-31T04:59:43;21.63;;;11.43;;
19780;SDS011;10050;55.492;13.506;2022-10-31T05:02:09;20.20;;;11.27;;
19780;SDS011;10050;55.492;13.506;2022-10-31T05:04:34;20.93;;;11.57;;
19780;SDS011;10050;55.492;13.506;2022-10-31T05:07:00;17.70;;;10.93;;
19780;SDS011;10050;55.492;13.506;2022-10-31T05:09:25;18.13;;;11.10;;
19780;SDS011;10050;55.492;13.506;2022-10-31T05:11:51;20.93;;;11.27;;
19780;SDS011;10050;55.492;13.506;2022-10-31T05:14:16;18.00;;;11.37;;
19780;SDS011;10050;55.492;13.506;2022-10-31T05:16:42;18.23;;;11.83;;
19780;SDS011;10050;55.492;13.506;2022-10-31T05:19:08;16.93;;;10.73;;
19780;SDS011;10050;55.492;13.506;2022-10-31T05:21:33;18.87;;;12.13;;
19780;SDS011;10050;55.492;13.506;2022-10-31T05:23:59;17.93;;;11.70;;
19780;SDS011;10050;55.492;13.506;2022-10-31T05:26:25;16.43;;;11.03;;
19780;SDS011;10050;55.492;13.506;2022-10-31T05:28:50;20.63;;;12.43;;
19780;SDS011;10050;55.492;13.506;2022-10-31T05:31:16;16.40;;;11.00;;
19780;SDS011;10050;55.492;13.506;2022-10-31T05:33:41;21.83;;;12.33;;
19780;SDS011;10050;55.492;13.506;2022-10-31T05:36:07;21.53;;;13.40;;
19780;SDS011;10050;55.492;13.506;2022-10-31T05:38:33;25.17;;;14.27;;
19780;SDS011;10050;55.492;13.506;2022-10-31T05:40:58;24.57;;;14.13;;
19780;SDS011;10050;55.492;13.506;2022-10-31T05:43:27;25.00;;;13.07;;
19780;SDS011;10050;55.492;13.506;2022-10-31T05:45:54;22.83;;;13.63;;
19780;SDS011;10050;55.492;13.506;2022-10-31T05:48:20;25.20;;;13.50;;
19780;SDS011;10050;55.492;13.506;2022-10-31T05:50:47;28.73;;;14.07;;
19780;SDS011;10050;55.492;13.506;2022-10-31T05:53:13;22.07;;;12.93;;
19780;SDS011;10050;55.492;13.506;2022-10-31T05:55:39;18.83;;;12.43;;
19780;SDS011;10050;55.492;13.506;2022-10-31T05:58:08;23.07;;;12.83;;
19780;SDS011;10050;55.492;13.506;2022-10-31T06:00:34;22.57;;;12.60;;
19780;SDS011;10050;55.492;13.506;2022-10-31T06:03:04;26.17;;;14.67;;
19780;SDS011;10050;55.492;13.506;2022-10-31T06:05:31;26.63;;;13.73;;
19780;SDS011;10050;55.492;13.506;2022-10-31T06:07:57;21.50;;;12.30;;
19780;SDS011;10050;55.492;13.506;2022-10-31T06:10:24;24.00;;;12.87;;
19780;SDS011;10050;55.492;13.506;2022-10-31T06:12:51;23.70;;;13.07;;
19780;SDS011;10050;55.492;13.506;2022-10-31T06:15:17;23.97;;;13.23;;
19780;SDS011;10050;55.492;13.506;2022-10-31T06:17:43;26.57;;;14.40;;
19780;SDS011;10050;55.492;13.506;2022-10-31T06:20:09;22.50;;;11.80;;
19780;SDS011;10050;55.492;13.506;2022-10-31T06:22:35;21.03;;;12.00;;
19780;SDS011;10050;55.492;13.506;2022-10-31T06:25:00;27.63;;;13.00;;
19780;SDS011;10050;55.492;13.506;2022-10-31T06:27:26;19.77;;;11.80;;
19780;SDS011;10050;55.492;13.506;2022-10-31T06:29:51;22.90;;;12.80;;
19780;SDS011;10050;55.492;13.506;2022-10-31T06:32:17;20.97;;;12.20;;
19780;SDS011;10050;55.492;13.506;2022-10-31T06:34:43;20.47;;;11.47;;
19780;SDS011;10050;55.492;13.506;2022-10-31T06:37:10;20.93;;;11.97;;
19780;SDS011;10050;55.492;13.506;2022-10-31T06:39:36;18.27;;;11.23;;
19780;SDS011;10050;55.492;13.506;2022-10-31T06:42:02;25.93;;;11.87;;
19780;SDS011;10050;55.492;13.506;2022-10-31T06:44:28;20.97;;;11.77;;
19780;SDS011;10050;55.492;13.506;2022-10-31T06:46:54;20.30;;;12.13;;
19780;SDS011;10050;55.492;13.506;2022-10-31T06:49:20;22.87;;;12.37;;
19780;SDS011;10050;55.492;13.506;2022-10-31T06:51:49;24.53;;;13.60;;
19780;SDS011;10050;55.492;13.506;2022-10-31T06:54:17;22.33;;;12.87;;
19780;SDS011;10050;55.492;13.506;2022-10-31T06:56:45;27.00;;;13.40;;
19780;SDS011;10050;55.492;13.506;2022-10-31T06:59:11;27.10;;;13.73;;
19780;SDS011;10050;55.492;13.506;2022-10-31T07:01:37;25.47;;;13.47;;
19780;SDS011;10050;55.492;13.506;2022-10-31T07:04:02;29.13;;;15.03;;
19780;SDS011;10050;55.492;13.506;2022-10-31T07:06:28;32.93;;;16.63;;
19780;SDS011;10050;55.492;13.506;2022-10-31T07:08:54;31.73;;;16.53;;
19780;SDS011;10050;55.492;13.506;2022-10-31T07:11:19;33.53;;;16.67;;
19780;SDS011;10050;55.492;13.506;2022-10-31T07:13:45;42.03;;;18.03;;
19780;SDS011;10050;55.492;13.506;2022-10-31T07:16:10;33.83;;;15.50;;
19780;SDS011;10050;55.492;13.506;2022-10-31T07:18:37;40.60;;;17.67;;
19780;SDS011;10050;55.492;13.506;2022-10-31T07:21:04;38.80;;;17.10;;
19780;SDS011;10050;55.492;13.506;2022-10-31T07:23:29;34.17;;;17.80;;
19780;SDS011;10050;55.492;13.506;2022-10-31T07:25:56;34.97;;;16.53;;
19780;SDS011;10050;55.492;13.506;2022-10-31T07:28:23;37.93;;;17.93;;
19780;SDS011;10050;55.492;13.506;2022-10-31T07:30:54;35.10;;;17.47;;
19780;SDS011;10050;55.492;13.506;2022-10-31T07:33:21;42.93;;;18.50;;
19780;SDS011;10050;55.492;13.506;2022-10-31T07:35:47;38.93;;;17.13;;
19780;SDS011;10050;55.492;13.506;2022-10-31T07:38:13;31.60;;;15.30;;
19780;SDS011;10050;55.492;13.506;2022-10-31T07:40:40;39.43;;;18.67;;
19780;SDS011;10050;55.492;13.506;2022-10-31T07:43:07;41.43;;;18.87;;
19780;SDS011;10050;55.492;13.506;2022-10-31T07:45:33;40.20;;;18.07;;
19780;SDS011;10050;55.492;13.506;2022-10-31T07:47:59;43.03;;;17.73;;
19780;SDS011;10050;55.492;13.506;2022-10-31T07:50:25;24.27;;;13.50;;
19780;SDS011;10050;55.492;13.506;2022-10-31T07:55:51;35.07;;;16.47;;
19780;SDS011;10050;55.492;13.506;2022-10-31T07:58:17;37.97;;;17.63;;
19780;SDS011;10050;55.492;13.506;2022-10-31T08:00:43;40.73;;;18.97;;
19780;SDS011;10050;55.492;13.506;2022-10-31T08:03:15;34.57;;;16.70;;
19780;SDS011;10050;55.492;13.506;2022-10-31T08:05:42;32.63;;;17.67;;
19780;SDS011;10050;55.492;13.506;2022-10-31T08:08:10;37.67;;;17.40;;
19780;SDS011;10050;55.492;13.506;2022-10-31T08:10:36;34.30;;;17.37;;
19780;SDS011;10050;55.492;13.506;2022-10-31T08:15:29;34.53;;;17.50;;
19780;SDS011;10050;55.492;13.506;2022-10-31T08:17:55;39.43;;;18.17;;
19780;SDS011;10050;55.492;13.506;2022-10-31T08:20:21;39.23;;;18.10;;
19780;SDS011;10050;55.492;13.506;2022-10-31T08:25:24;41.07;;;18.03;;
19780;SDS011;10050;55.492;13.506;2022-10-31T08:27:51;43.93;;;19.20;;
19780;SDS011;10050;55.492;13.506;2022-10-31T08:30:20;38.23;;;18.63;;
19780;SDS011;10050;55.492;13.506;2022-10-31T08:32:47;37.43;;;17.90;;
19780;SDS011;10050;55.492;13.506;2022-10-31T08:35:21;45.20;;;19.77;;
19780;SDS011;10050;55.492;13.506;2022-10-31T08:37:51;45.57;;;19.70;;
19780;SDS011;10050;55.492;13.506;2022-10-31T08:40:19;43.73;;;20.53;;
19780;SDS011;10050;55.492;13.506;2022-10-31T08:42:44;41.53;;;18.23;;
19780;SDS011;10050;55.492;13.506;2022-10-31T08:45:10;41.47;;;17.90;;
19780;SDS011;10050;55.492;13.506;2022-10-31T08:47:36;42.87;;;19.13;;
19780;SDS011;10050;55.492;13.506;2022-10-31T08:50:01;42.73;;;18.80;;
19780;SDS011;10050;55.492;13.506;2022-10-31T08:52:27;34.50;;;17.50;;
19780;SDS011;10050;55.492;13.506;2022-10-31T08:54:53;38.60;;;17.10;;
19780;SDS011;10050;55.492;13.506;2022-10-31T08:57:19;34.67;;;17.63;;
19780;SDS011;10050;55.492;13.506;2022-10-31T08:59:45;36.23;;;16.40;;
19780;SDS011;10050;55.492;13.506;2022-10-31T09:02:10;39.63;;;18.33;;
19780;SDS011;10050;55.492;13.506;2022-10-31T09:04:36;51.88;;;23.40;;
19780;SDS011;10050;55.492;13.506;2022-10-31T09:07:01;45.70;;;19.13;;
19780;SDS011;10050;55.492;13.506;2022-10-31T09:09:27;43.17;;;18.47;;
19780;SDS011;10050;55.492;13.506;2022-10-31T09:11:53;35.93;;;16.60;;
19780;SDS011;10050;55.492;13.506;2022-10-31T09:14:18;27.87;;;15.57;;
19780;SDS011;10050;55.492;13.506;2022-10-31T09:16:44;46.50;;;20.23;;
19780;SDS011;10050;55.492;13.506;2022-10-31T09:19:09;32.17;;;16.07;;
19780;SDS011;10050;55.492;13.506;2022-10-31T09:21:35;49.83;;;19.93;;
19780;SDS011;10050;55.492;13.506;2022-10-31T09:24:00;42.87;;;18.57;;
19780;SDS011;10050;55.492;13.506;2022-10-31T09:26:26;29.53;;;14.93;;
19780;SDS011;10050;55.492;13.506;2022-10-31T09:28:52;38.53;;;18.17;;
19780;SDS011;10050;55.492;13.506;2022-10-31T09:31:17;46.47;;;20.63;;
19780;SDS011;10050;55.492;13.506;2022-10-31T09:33:43;34.70;;;17.93;;
19780;SDS011;10050;55.492;13.506;2022-10-31T09:36:08;45.87;;;18.60;;
19780;SDS011;10050;55.492;13.506;2022-10-31T09:38:34;41.93;;;19.53;;
19780;SDS011;10050;55.492;13.506;2022-10-31T09:50:06;50.90;;;18.73;;
19780;SDS011;10050;55.492;13.506;2022-10-31T09:52:41;42.23;;;16.33;;
19780;SDS011;10050;55.492;13.506;2022-10-31T09:55:31;41.17;;;18.17;;
19780;SDS011;10050;55.492;13.506;2022-10-31T09:58:05;43.77;;;19.27;;
19780;SDS011;10050;55.492;13.506;2022-10-31T10:00:33;44.47;;;19.77;;
19780;SDS011;10050;55.492;13.506;2022-10-31T10:06:01;50.50;;;21.43;;
19780;SDS011;10050;55.492;13.506;2022-10-31T10:08:30;57.87;;;25.07;;
19780;SDS011;10050;55.492;13.506;2022-10-31T10:11:01;52.57;;;23.10;;
19780;SDS011;10050;55.492;13.506;2022-10-31T10:29:58;42.23;;;20.03;;
19780;SDS011;10050;55.492;13.506;2022-10-31T10:32:39;48.17;;;20.83;;
19780;SDS011;10050;55.492;13.506;2022-10-31T10:35:30;44.43;;;19.33;;
19780;SDS011;10050;55.492;13.506;2022-10-31T10:38:28;47.10;;;20.03;;
19780;SDS011;10050;55.492;13.506;2022-10-31T10:41:12;42.20;;;19.70;;
19780;SDS011;10050;55.492;13.506;2022-10-31T10:43:41;53.47;;;24.07;;
19780;SDS011;10050;55.492;13.506;2022-10-31T10:49:04;46.50;;;20.83;;
19780;SDS011;10050;55.492;13.506;2022-10-31T10:57:27;42.30;;;17.37;;
19780;SDS011;10050;55.492;13.506;2022-10-31T11:00:13;41.67;;;17.20;;
19780;SDS011;10050;55.492;13.506;2022-10-31T11:02:51;32.27;;;16.60;;
19780;SDS011;10050;55.492;13.506;2022-10-31T11:05:23;32.53;;;15.67;;
19780;SDS011;10050;55.492;13.506;2022-10-31T11:07:49;36.13;;;16.53;;
19780;SDS011;10050;55.492;13.506;2022-10-31T11:10:15;36.77;;;17.70;;
19780;SDS011;10050;55.492;13.506;2022-10-31T11:12:41;41.90;;;17.40;;
19780;SDS011;10050;55.492;13.506;2022-10-31T11:15:19;40.20;;;16.80;;
19780;SDS011;10050;55.492;13.506;2022-10-31T11:17:51;37.37;;;15.53;;
19780;SDS011;10050;55.492;13.506;2022-10-31T11:22:45;31.43;;;13.33;;
19780;SDS011;10050;55.492;13.506;2022-10-31T11:25:22;22.93;;;11.30;;
19780;SDS011;10050;55.492;13.506;2022-10-31T11:30:43;27.67;;;12.20;;
19780;SDS011;10050;55.492;13.506;2022-10-31T11:33:19;24.70;;;11.53;;
19780;SDS011;10050;55.492;13.506;2022-10-31T11:35:52;25.07;;;10.60;;
19780;SDS011;10050;55.492;13.506;2022-10-31T11:38:19;23.53;;;11.67;;
19780;SDS011;10050;55.492;13.506;2022-10-31T11:40:55;25.10;;;10.27;;
19780;SDS011;10050;55.492;13.506;2022-10-31T11:43:25;18.13;;;9.07;;
19780;SDS011;10050;55.492;13.506;2022-10-31T11:45:52;18.90;;;9.17;;
19780;SDS011;10050;55.492;13.506;2022-10-31T11:48:19;13.27;;;8.10;;
19780;SDS011;10050;55.492;13.506;2022-10-31T11:50:51;17.20;;;9.30;;
19780;SDS011;10050;55.492;13.506;2022-10-31T11:53:25;19.87;;;8.53;;
19780;SDS011;10050;55.492;13.506;2022-10-31T11:56:03;16.67;;;7.73;;
19780;SDS011;10050;55.492;13.506;2022-10-31T11:58:37;15.70;;;7.90;;
19780;SDS011;10050;55.492;13.506;2022-10-31T12:01:03;13.70;;;7.33;;
19780;SDS011;10050;55.492;13.506;2022-10-31T12:03:33;15.67;;;7.40;;
19780;SDS011;10050;55.492;13.506;2022-10-31T12:06:19;12.20;;;7.17;;
19780;SDS011;10050;55.492;13.506;2022-10-31T12:08:48;13.90;;;7.37;;
19780;SDS011;10050;55.492;13.506;2022-10-31T12:11:32;13.27;;;7.27;;
19780;SDS011;10050;55.492;13.506;2022-10-31T12:25:32;13.90;;;6.63;;
19780;SDS011;10050;55.492;13.506;2022-10-31T12:28:03;12.40;;;6.60;;
19780;SDS011;10050;55.492;13.506;2022-10-31T12:30:55;11.53;;;6.50;;
19780;SDS011;10050;55.492;13.506;2022-10-31T12:33:32;14.37;;;6.90;;
19780;SDS011;10050;55.492;13.506;2022-10-31T12:36:19;9.50;;;6.23;;
19780;SDS011;10050;55.492;13.506;2022-10-31T12:38:49;10.70;;;5.67;;
19780;SDS011;10050;55.492;13.506;2022-10-31T12:41:30;10.23;;;5.77;;
19780;SDS011;10050;55.492;13.506;2022-10-31T12:44:09;10.67;;;6.00;;
19780;SDS011;10050;55.492;13.506;2022-10-31T12:47:04;9.37;;;5.43;;
19780;SDS011;10050;55.492;13.506;2022-10-31T12:52:45;9.77;;;5.23;;
19780;SDS011;10050;55.492;13.506;2022-10-31T12:55:36;10.90;;;6.03;;
19780;SDS011;10050;55.492;13.506;2022-10-31T12:58:10;8.00;;;4.77;;
19780;SDS011;10050;55.492;13.506;2022-10-31T13:00:44;9.43;;;5.27;;
19780;SDS011;10050;55.492;13.506;2022-10-31T13:03:21;7.30;;;4.70;;
19780;SDS011;10050;55.492;13.506;2022-10-31T13:05:57;8.03;;;4.80;;
19780;SDS011;10050;55.492;13.506;2022-10-31T13:08:36;7.23;;;5.20;;
19780;SDS011;10050;55.492;13.506;2022-10-31T13:16:42;6.80;;;4.33;;
19780;SDS011;10050;55.492;13.506;2022-10-31T13:22:04;8.83;;;5.43;;
19780;SDS011;10050;55.492;13.506;2022-10-31T13:27:26;9.10;;;5.40;;
19780;SDS011;10050;55.492;13.506;2022-10-31T13:30:18;9.97;;;5.60;;
19780;SDS011;10050;55.492;13.506;2022-10-31T13:32:59;8.50;;;5.63;;
19780;SDS011;10050;55.492;13.506;2022-10-31T13:38:08;9.83;;;6.20;;
19780;SDS011;10050;55.492;13.506;2022-10-31T13:40:51;10.93;;;6.33;;
19780;SDS011;10050;55.492;13.506;2022-10-31T13:43:37;7.23;;;5.00;;
19780;SDS011;10050;55.492;13.506;2022-10-31T13:46:34;8.00;;;5.20;;
19780;SDS011;10050;55.492;13.506;2022-10-31T13:49:04;7.93;;;5.47;;
19780;SDS011;10050;55.492;13.506;2022-10-31T13:51:46;9.43;;;6.03;;
19780;SDS011;10050;55.492;13.506;2022-10-31T13:54:21;9.27;;;6.03;;
19780;SDS011;10050;55.492;13.506;2022-10-31T13:56:48;11.27;;;6.70;;
19780;SDS011;10050;55.492;13.506;2022-10-31T13:59:20;7.17;;;5.40;;
19780;SDS011;10050;55.492;13.506;2022-10-31T14:01:49;7.60;;;5.70;;
19780;SDS011;10050;55.492;13.506;2022-10-31T14:04:28;9.73;;;5.97;;
19780;SDS011;10050;55.492;13.506;2022-10-31T14:07:16;8.93;;;7.93;;
19780;SDS011;10050;55.492;13.506;2022-10-31T14:12:42;10.27;;;5.80;;
19780;SDS011;10050;55.492;13.506;2022-10-31T14:15:16;7.63;;;5.20;;
19780;SDS011;10050;55.492;13.506;2022-10-31T14:17:47;8.97;;;5.90;;
19780;SDS011;10050;55.492;13.506;2022-10-31T14:22:41;9.57;;;5.77;;
19780;SDS011;10050;55.492;13.506;2022-10-31T14:27:51;8.60;;;6.07;;
19780;SDS011;10050;55.492;13.506;2022-10-31T14:30:24;10.93;;;8.43;;
19780;SDS011;10050;55.492;13.506;2022-10-31T14:32:52;9.33;;;7.53;;
19780;SDS011;10050;55.492;13.506;2022-10-31T14:36:00;10.27;;;7.47;;
19780;SDS011;10050;55.492;13.506;2022-10-31T14:49:18;8.77;;;7.03;;
19780;SDS011;10050;55.492;13.506;2022-10-31T14:52:06;11.30;;;6.63;;
19780;SDS011;10050;55.492;13.506;2022-10-31T14:54:34;9.43;;;6.53;;
19780;SDS011;10050;55.492;13.506;2022-10-31T14:57:08;11.00;;;7.43;;
19780;SDS011;10050;55.492;13.506;2022-10-31T14:59:48;11.67;;;8.13;;
19780;SDS011;10050;55.492;13.506;2022-10-31T15:02:23;14.70;;;9.55;;
19780;SDS011;10050;55.492;13.506;2022-10-31T15:04:57;12.40;;;7.80;;
19780;SDS011;10050;55.492;13.506;2022-10-31T15:07:24;12.77;;;8.70;;
19780;SDS011;10050;55.492;13.506;2022-10-31T15:09:58;10.50;;;6.90;;
19780;SDS011;10050;55.492;13.506;2022-10-31T15:12:31;13.20;;;8.03;;
19780;SDS011;10050;55.492;13.506;2022-10-31T15:18:00;13.47;;;7.30;;
19780;SDS011;10050;55.492;13.506;2022-10-31T15:20:29;11.20;;;7.60;;
19780;SDS011;10050;55.492;13.506;2022-10-31T15:22:58;14.63;;;8.47;;
19780;SDS011;10050;55.492;13.506;2022-10-31T15:25:25;13.00;;;8.60;;
19780;SDS011;10050;55.492;13.506;2022-10-31T15:27:55;15.63;;;9.77;;
19780;SDS011;10050;55.492;13.506;2022-10-31T15:30:25;10.33;;;7.30;;
19780;SDS011;10050;55.492;13.506;2022-10-31T15:32:52;12.23;;;6.47;;
19780;SDS011;10050;55.492;13.506;2022-10-31T15:35:29;11.03;;;6.40;;
19780;SDS011;10050;55.492;13.506;2022-10-31T15:37:56;10.60;;;7.00;;
19780;SDS011;10050;55.492;13.506;2022-10-31T15:40:24;11.37;;;7.20;;
19780;SDS011;10050;55.492;13.506;2022-10-31T15:43:01;12.23;;;9.00;;
19780;SDS011;10050;55.492;13.506;2022-10-31T15:45:29;9.27;;;7.53;;
19780;SDS011;10050;55.492;13.506;2022-10-31T15:47:59;11.63;;;6.73;;
19780;SDS011;10050;55.492;13.506;2022-10-31T15:50:38;10.00;;;6.63;;
19780;SDS011;10050;55.492;13.506;2022-10-31T15:53:13;12.53;;;7.50;;
19780;SDS011;10050;55.492;13.506;2022-10-31T15:55:53;17.10;;;8.80;;
19780;SDS011;10050;55.492;13.506;2022-10-31T15:58:21;12.17;;;7.73;;
19780;SDS011;10050;55.492;13.506;2022-10-31T16:01:01;10.73;;;7.67;;
19780;SDS011;10050;55.492;13.506;2022-10-31T16:03:29;16.55;;;9.93;;
19780;SDS011;10050;55.492;13.506;2022-10-31T16:06:01;15.47;;;9.07;;
19780;SDS011;10050;55.492;13.506;2022-10-31T16:10:58;13.50;;;7.57;;
19780;SDS011;10050;55.492;13.506;2022-10-31T16:13:30;12.87;;;7.97;;
19780;SDS011;10050;55.492;13.506;2022-10-31T16:16:02;11.17;;;7.27;;
19780;SDS011;10050;55.492;13.506;2022-10-31T16:18:36;9.90;;;7.33;;
19780;SDS011;10050;55.492;13.506;2022-10-31T16:21:05;9.30;;;6.90;;
19780;SDS011;10050;55.492;13.506;2022-10-31T16:23:31;12.87;;;7.47;;
19780;SDS011;10050;55.492;13.506;2022-10-31T16:25:57;11.67;;;7.13;;
19780;SDS011;10050;55.492;13.506;2022-10-31T16:28:26;12.43;;;9.07;;
19780;SDS011;10050;55.492;13.506;2022-10-31T16:30:53;14.70;;;8.33;;
19780;SDS011;10050;55.492;13.506;2022-10-31T16:35:58;10.43;;;7.40;;
19780;SDS011;10050;55.492;13.506;2022-10-31T16:38:25;12.00;;;8.30;;
19780;SDS011;10050;55.492;13.506;2022-10-31T16:40:51;10.57;;;7.73;;
19780;SDS011;10050;55.492;13.506;2022-10-31T16:43:17;9.33;;;7.40;;
19780;SDS011;10050;55.492;13.506;2022-10-31T16:45:46;13.70;;;7.97;;
19780;SDS011;10050;55.492;13.506;2022-10-31T16:48:14;13.57;;;7.53;;
19780;SDS011;10050;55.492;13.506;2022-10-31T16:50:42;11.40;;;8.43;;
19780;SDS011;10050;55.492;13.506;2022-10-31T16:53:09;13.93;;;9.10;;
19780;SDS011;10050;55.492;13.506;2022-10-31T16:55:41;16.13;;;9.13;;